Time;durP1;ratioP1;P1;durP2;ratioP2;P2;SDS_P1;SDS_P2;PMS_P1;PMS_P2;Temp;Humidity;BMP_temperature;BMP_pressure;BME280_temperature;BME280_humidity;BME280_pressure;Samples;Min_cycle;Max_cycle;Signal;HPM_P1;HPM_P2
2023/06/28 00:00:28;;;;;;;6.30;3.10;;;;;;;25.50;45.46;99733.42;108199;1277;21987;-71
2023/06/28 00:02:55;;;;;;;6.20;3.50;;;;;;;25.49;45.74;99738.61;108238;1283;21995;-60
2023/06/28 00:05:21;;;;;;;4.70;3.00;;;;;;;25.48;45.81;99734.36;108238;1283;21992;-60
2023/06/28 00:07:48;;;;;;;9.60;3.20;;;;;;;25.45;45.75;99730.25;108039;1280;21998;-69
2023/06/28 00:10:13;;;;;;;4.40;2.60;;;;;;;25.46;45.78;99731.83;108115;1277;22003;-71
2023/06/28 00:12:39;;;;;;;6.10;3.70;;;;;;;25.46;45.86;99726.61;108032;1285;21996;-69
2023/06/28 00:15:07;;;;;;;5.60;3.20;;;;;;;25.46;46.22;99723.52;108150;1280;21974;-60
2023/06/28 00:17:32;;;;;;;5.80;3.10;;;;;;;25.45;46.40;99736.58;108271;1281;21989;-71
2023/06/28 00:19:59;;;;;;;8.00;3.40;;;;;;;25.40;46.48;99746.67;108216;1280;23612;-72
2023/06/28 00:22:31;;;;;;;6.90;3.80;;;;;;;25.33;47.22;99741.89;108216;1274;22015;-61
2023/06/28 00:25:01;;;;;;;5.90;3.30;;;;;;;25.25;47.76;99743.58;108189;1280;21985;-72
2023/06/28 00:27:27;;;;;;;7.10;4.20;;;;;;;25.22;47.75;99752.65;108182;1277;21998;-62
2023/06/28 00:29:53;;;;;;;7.10;3.50;;;;;;;25.21;47.56;99753.80;108236;1280;21984;-72
2023/06/28 00:32:19;;;;;;;5.40;3.90;;;;;;;25.20;48.88;99750.61;108235;1281;21996;-71
2023/06/28 00:34:45;;;;;;;7.40;4.50;;;;;;;25.20;48.79;99747.22;108187;1277;21987;-71
2023/06/28 00:37:11;;;;;;;8.50;4.20;;;;;;;25.23;48.32;99743.20;108012;1279;22037;-60
2023/06/28 00:39:37;;;;;;;9.60;4.90;;;;;;;25.29;48.13;99742.55;108024;1285;22027;-61
2023/06/28 00:42:03;;;;;;;7.40;4.50;;;;;;;25.35;48.04;99745.77;108038;1277;21983;-70
2023/06/28 00:44:29;;;;;;;10.50;4.20;;;;;;;25.41;48.08;99746.24;108063;1277;22201;-72
2023/06/28 00:46:54;;;;;;;9.20;4.30;;;;;;;25.45;48.15;99751.49;108104;1285;22011;-71
2023/06/28 00:49:22;;;;;;;11.20;5.20;;;;;;;25.49;48.20;99757.09;108031;1285;21987;-70
2023/06/28 00:51:47;;;;;;;9.10;4.90;;;;;;;25.52;47.87;99762.50;108168;1284;22048;-71
2023/06/28 00:54:14;;;;;;;7.10;4.70;;;;;;;25.57;47.99;99757.86;108212;1285;22009;-60
2023/06/28 00:56:40;;;;;;;7.20;4.50;;;;;;;25.61;48.07;99759.30;108132;1285;21991;-60
2023/06/28 00:59:06;;;;;;;8.20;5.10;;;;;;;25.63;48.46;99764.84;108158;1283;21976;-71
2023/06/28 01:01:32;;;;;;;8.50;4.50;;;;;;;25.66;48.36;99770.71;108174;1280;21993;-60
2023/06/28 01:04:00;;;;;;;11.30;5.50;;;;;;;25.69;48.64;99768.48;108228;1284;21953;-71
2023/06/28 01:06:31;;;;;;;7.90;5.00;;;;;;;25.69;48.84;99766.48;108199;1274;21993;-60
2023/06/28 01:08:57;;;;;;;10.30;5.40;;;;;;;25.72;49.00;99770.41;108013;1285;22004;-71
2023/06/28 01:11:22;;;;;;;11.50;5.60;;;;;;;25.74;49.44;99769.34;108177;1285;22003;-61
2023/06/28 01:13:48;;;;;;;11.80;5.90;;;;;;;25.76;49.29;99771.65;108174;1281;22001;-61
2023/06/28 01:16:14;;;;;;;10.10;5.10;;;;;;;25.78;49.46;99771.52;108146;1277;21982;-70
2023/06/28 01:18:40;;;;;;;8.20;5.40;;;;;;;25.77;49.69;99776.83;108139;1277;22452;-71
2023/06/28 01:21:05;;;;;;;8.70;5.20;;;;;;;25.74;50.82;99781.02;108014;1277;21984;-72
2023/06/28 01:23:33;;;;;;;9.40;5.60;;;;;;;25.75;50.60;99788.47;108041;1280;22007;-71
2023/06/28 01:26:02;;;;;;;8.90;5.60;;;;;;;25.79;50.30;99789.40;108074;1274;22754;-62
2023/06/28 01:28:30;;;;;;;6.80;4.80;;;;;;;25.84;50.72;99788.23;108037;1285;22005;-61
2023/06/28 01:30:57;;;;;;;7.50;5.30;;;;;;;25.87;50.59;99785.45;108047;1280;22924;-60
2023/06/28 01:33:23;;;;;;;6.80;4.70;;;;;;;25.90;50.56;99791.87;108065;1277;21986;-61
2023/06/28 01:35:49;;;;;;;9.70;5.50;;;;;;;25.93;50.83;99799.14;108058;1277;21990;-61
2023/06/28 01:38:15;;;;;;;6.00;4.50;;;;;;;25.96;50.42;99808.95;108317;1280;22027;-71
2023/06/28 01:40:40;;;;;;;10.20;5.20;;;;;;;26.00;50.53;99817.42;108302;1285;21988;-60
2023/06/28 01:43:06;;;;;;;7.30;4.90;;;;;;;26.09;50.13;99821.80;108330;1285;21987;-72
2023/06/28 01:45:33;;;;;;;12.00;5.80;;;;;;;26.16;50.02;99824.90;108135;1280;21994;-71
2023/06/28 01:47:59;;;;;;;10.30;6.20;;;;;;;26.17;50.39;99825.86;108135;1285;21977;-72
2023/06/28 01:50:26;;;;;;;9.50;5.90;;;;;;;26.16;50.70;99828.10;108037;1280;21981;-61
2023/06/28 01:52:51;;;;;;;8.30;4.80;;;;;;;26.16;50.55;99832.05;108141;1283;21986;-71
2023/06/28 01:55:17;;;;;;;8.60;4.90;;;;;;;26.18;50.19;99836.27;108013;1285;21988;-71
2023/06/28 01:57:45;;;;;;;10.20;4.50;;;;;;;26.20;49.97;99845.81;108009;1285;21994;-62
2023/06/28 02:00:11;;;;;;;12.10;5.30;;;;;;;26.22;49.89;99848.30;108004;1274;21992;-72
2023/06/28 02:02:37;;;;;;;7.80;4.60;;;;;;;26.23;49.80;99850.57;108029;1283;21992;-60
2023/06/28 02:05:03;;;;;;;13.10;5.40;;;;;;;26.21;50.43;99853.06;108043;1283;22026;-71
2023/06/28 02:07:29;;;;;;;10.50;4.60;;;;;;;26.19;50.29;99860.09;108018;1276;22001;-70
2023/06/28 02:09:55;;;;;;;7.80;4.40;;;;;;;26.14;50.94;99857.58;108181;1280;22018;-60
2023/06/28 02:12:21;;;;;;;8.20;4.60;;;;;;;26.08;50.65;99853.71;108031;1285;21992;-70
2023/06/28 02:14:46;;;;;;;10.30;5.00;;;;;;;26.04;51.26;99854.08;107999;1280;21986;-71
2023/06/28 02:17:14;;;;;;;9.40;6.00;;;;;;;26.02;50.98;99857.00;108111;1284;21982;-71
2023/06/28 02:19:41;;;;;;;7.40;5.00;;;;;;;26.00;51.08;99857.16;108075;1280;21987;-60
2023/06/28 02:22:07;;;;;;;8.60;4.40;;;;;;;25.97;50.82;99854.66;108089;1285;22024;-60
2023/06/28 02:24:33;;;;;;;8.60;4.10;;;;;;;25.96;50.80;99851.91;108182;1284;21983;-70
2023/06/28 02:26:58;;;;;;;7.80;4.30;;;;;;;25.96;51.29;99844.36;108101;1284;22169;-59
2023/06/28 02:29:24;;;;;;;6.50;4.00;;;;;;;25.93;51.22;99842.95;108162;1280;21983;-59
2023/06/28 02:31:50;;;;;;;6.40;4.40;;;;;;;25.91;51.35;99842.63;108077;1280;22059;-59
2023/06/28 02:34:15;;;;;;;5.90;4.10;;;;;;;25.91;51.70;99841.01;108087;1284;22082;-58
2023/06/28 02:36:41;;;;;;;4.60;3.60;;;;;;;25.92;51.34;99838.27;108057;1285;22247;-70
2023/06/28 02:39:07;;;;;;;5.50;3.90;;;;;;;25.91;51.64;99838.30;108088;1284;21993;-58
2023/06/28 02:41:32;;;;;;;5.80;3.90;;;;;;;25.91;51.67;99843.92;108073;1284;22002;-59
2023/06/28 02:43:58;;;;;;;5.50;3.70;;;;;;;25.89;52.84;99855.60;108062;1285;21985;-59
2023/06/28 02:46:24;;;;;;;5.40;3.70;;;;;;;25.84;52.70;99868.88;108060;1280;21994;-71
2023/06/28 02:48:49;;;;;;;6.00;4.10;;;;;;;25.80;53.32;99877.86;108079;1285;21986;-71
2023/06/28 02:51:15;;;;;;;4.80;3.70;;;;;;;25.77;53.68;99881.75;108056;1274;21989;-70
2023/06/28 02:53:41;;;;;;;5.00;3.70;;;;;;;25.75;53.64;99875.07;108088;1277;21983;-59
2023/06/28 02:56:07;;;;;;;5.60;4.10;;;;;;;25.77;52.89;99872.00;108116;1280;22047;-71
2023/06/28 02:58:32;;;;;;;7.20;3.80;;;;;;;25.82;53.10;99860.80;108123;1284;22520;-70
2023/06/28 03:00:58;;;;;;;5.20;4.00;;;;;;;25.85;53.37;99860.02;108142;1284;21986;-59
2023/06/28 03:03:33;;;;;;;7.70;3.70;;;;;;;25.85;53.70;99865.23;108232;1284;21992;-60
2023/06/28 03:06:00;;;;;;;6.80;4.30;;;;;;;25.86;53.97;99873.55;108540;1284;22049;-60
2023/06/28 03:08:26;;;;;;;8.70;4.40;;;;;;;25.90;53.58;99881.14;108508;1284;23052;-60
2023/06/28 03:10:52;;;;;;;7.30;3.70;;;;;;;25.94;53.98;99881.72;108246;1284;21985;-61
2023/06/28 03:13:18;;;;;;;7.40;4.30;;;;;;;25.96;54.37;99884.59;108204;1276;21984;-70
2023/06/28 03:15:43;;;;;;;9.10;5.30;;;;;;;25.98;54.15;99887.67;108212;1284;21991;-60
2023/06/28 03:18:09;;;;;;;5.60;3.50;;;;;;;26.01;53.58;99883.52;108230;1274;21987;-60
2023/06/28 03:20:35;;;;;;;5.70;3.20;;;;;;;26.04;53.28;99877.33;108189;1284;21993;-70
2023/06/28 03:23:02;;;;;;;5.30;3.00;;;;;;;26.04;52.89;99877.45;108239;1284;22065;-70
2023/06/28 03:25:27;;;;;;;5.90;3.40;;;;;;;26.05;52.80;99881.17;108211;1275;21983;-70
2023/06/28 03:27:53;;;;;;;6.30;3.10;;;;;;;26.05;52.09;99880.13;108228;1283;21955;-60
2023/06/28 03:30:19;;;;;;;4.10;2.80;;;;;;;26.06;51.97;99878.76;108245;1284;21957;-71
2023/06/28 03:32:45;;;;;;;12.40;3.40;;;;;;;26.07;51.98;99888.86;108191;1284;22907;-70
2023/06/28 03:35:11;;;;;;;7.20;3.20;;;;;;;26.07;51.72;99895.55;108264;1280;22011;-61
2023/06/28 03:37:36;;;;;;;6.70;3.70;;;;;;;26.08;51.57;99903.55;108199;1280;21996;-70
2023/06/28 03:40:04;;;;;;;11.10;5.90;;;;;;;26.10;51.89;99909.70;108240;1285;21991;-70
2023/06/28 03:42:30;;;;;;;6.40;3.80;;;;;;;26.09;51.68;99915.16;108294;1280;21991;-62
2023/06/28 03:44:55;;;;;;;4.50;3.30;;;;;;;26.09;51.48;99918.94;108174;1276;21991;-70
2023/06/28 03:47:21;;;;;;;5.20;2.90;;;;;;;26.08;51.24;99919.38;108216;1280;21991;-70
2023/06/28 03:49:47;;;;;;;3.80;2.60;;;;;;;26.10;51.24;99919.40;108234;1284;21987;-71
2023/06/28 03:52:13;;;;;;;3.70;2.60;;;;;;;26.12;51.53;99929.27;108202;1280;21987;-70
2023/06/28 03:54:39;;;;;;;3.60;2.10;;;;;;;26.13;51.58;99933.69;108173;1280;21992;-60
2023/06/28 03:57:05;;;;;;;7.00;4.00;;;;;;;26.14;51.53;99925.20;108215;1284;21990;-70
2023/06/28 03:59:31;;;;;;;5.90;2.60;;;;;;;26.18;51.74;99925.25;108193;1278;21996;-61
2023/06/28 04:01:56;;;;;;;6.90;3.10;;;;;;;26.21;51.50;99925.90;108229;1285;21997;-61
2023/06/28 04:04:23;;;;;;;4.70;2.40;;;;;;;26.24;51.47;99930.14;108226;1284;21988;-61
2023/06/28 04:06:49;;;;;;;5.20;3.00;;;;;;;26.28;51.86;99928.66;108246;1281;23739;-70
2023/06/28 04:09:16;;;;;;;4.30;2.60;;;;;;;26.31;52.24;99933.09;108073;1285;21990;-60
2023/06/28 04:11:42;;;;;;;5.60;2.80;;;;;;;26.30;52.17;99938.08;108063;1277;21986;-70
2023/06/28 04:14:08;;;;;;;5.50;2.70;;;;;;;26.29;52.43;99944.81;108039;1285;21986;-70
2023/06/28 04:16:35;;;;;;;6.40;2.40;;;;;;;26.30;52.22;99947.94;108039;1283;21996;-70
2023/06/28 04:19:00;;;;;;;4.20;3.00;;;;;;;26.32;52.54;99949.01;108077;1280;21977;-69
2023/06/28 04:21:26;;;;;;;4.20;2.90;;;;;;;26.34;52.33;99956.26;108192;1284;21982;-70
2023/06/28 04:23:52;;;;;;;4.50;2.80;;;;;;;26.35;52.85;99966.40;108203;1274;21974;-71
2023/06/28 04:26:19;;;;;;;9.90;5.00;;;;;;;26.31;52.11;99966.54;108439;1281;21947;-60
2023/06/28 04:28:45;;;;;;;27.10;8.50;;;;;;;26.27;51.83;99964.92;108326;1277;21997;-69
2023/06/28 04:31:10;;;;;;;7.90;4.10;;;;;;;26.23;51.67;99963.65;108460;1274;21996;-70
2023/06/28 04:33:36;;;;;;;17.10;7.00;;;;;;;26.15;51.48;99967.55;108118;1274;21988;-61
2023/06/28 04:36:02;;;;;;;4.10;2.70;;;;;;;26.07;51.18;99971.08;108140;1284;21990;-71
2023/06/28 04:38:32;;;;;;;10.20;3.30;;;;;;;26.01;51.53;99977.15;108144;1277;22004;-70
2023/06/28 04:40:59;;;;;;;4.80;2.30;;;;;;;25.97;51.41;99985.38;108209;1279;21998;-70
2023/06/28 04:43:24;;;;;;;6.30;2.60;;;;;;;25.92;51.46;99987.23;108409;1280;21987;-61
2023/06/28 04:45:50;;;;;;;6.20;2.20;;;;;;;25.90;51.71;99990.26;108136;1284;21986;-71
2023/06/28 04:48:16;;;;;;;3.90;2.20;;;;;;;25.90;51.07;99991.48;108220;1284;21987;-60
2023/06/28 04:50:46;;;;;;;15.80;6.30;;;;;;;25.92;51.27;99998.90;108194;1283;21987;-60
2023/06/28 04:53:12;;;;;;;15.60;4.30;;;;;;;25.89;50.90;100005.27;108226;1279;22218;-62
2023/06/28 04:55:37;;;;;;;21.20;7.80;;;;;;;25.85;50.63;100012.77;108175;1279;21996;-61
2023/06/28 04:58:04;;;;;;;20.40;8.80;;;;;;;25.84;50.11;100010.85;108161;1280;21986;-71
2023/06/28 05:00:30;;;;;;;21.50;6.40;;;;;;;25.88;49.97;100006.42;108194;1280;22462;-61
2023/06/28 05:02:56;;;;;;;5.40;2.50;;;;;;;25.90;50.09;100005.70;108231;1284;21989;-70
2023/06/28 05:05:25;;;;;;;4.70;2.00;;;;;;;25.92;50.14;100007.48;108280;1280;21990;-69
2023/06/28 05:07:54;;;;;;;5.60;2.40;;;;;;;25.93;49.83;100000.95;108190;1284;22456;-65
2023/06/28 05:10:21;;;;;;;17.40;6.60;;;;;;;25.90;49.73;100002.44;108209;1281;21995;-69
2023/06/28 05:12:48;;;;;;;6.40;3.20;;;;;;;25.86;49.68;100009.79;108234;1284;21998;-69
2023/06/28 05:15:14;;;;;;;8.50;4.00;;;;;;;25.80;49.79;100014.61;108203;1274;21994;-60
2023/06/28 05:17:40;;;;;;;7.10;3.60;;;;;;;25.78;50.04;100009.25;108258;1281;21989;-71
2023/06/28 05:20:06;;;;;;;3.90;2.20;;;;;;;25.78;49.98;100008.48;108191;1284;21984;-60
2023/06/28 05:22:32;;;;;;;5.70;3.20;;;;;;;25.81;50.28;100013.27;108202;1284;21982;-68
2023/06/28 05:24:58;;;;;;;9.70;4.20;;;;;;;25.75;50.75;100020.22;108169;1277;22063;-70
2023/06/28 05:27:23;;;;;;;29.50;9.80;;;;;;;25.70;50.57;100024.95;108187;1284;21987;-70
2023/06/28 05:29:49;;;;;;;14.50;6.10;;;;;;;25.63;50.48;100033.75;108244;1284;23605;-70
2023/06/28 05:32:15;;;;;;;10.40;3.80;;;;;;;25.61;50.13;100037.54;108192;1280;22466;-70
2023/06/28 05:34:40;;;;;;;11.80;4.40;;;;;;;25.62;50.12;100039.27;108179;1274;22008;-69
2023/06/28 05:37:06;;;;;;;19.80;10.60;;;;;;;25.61;50.23;100038.76;108081;1285;21992;-59
2023/06/28 05:39:32;;;;;;;4.50;2.20;;;;;;;25.63;50.07;100044.36;108033;1284;21996;-59
2023/06/28 05:41:57;;;;;;;14.90;3.20;;;;;;;25.67;49.85;100047.13;108051;1280;21987;-69
2023/06/28 05:44:23;;;;;;;4.30;2.40;;;;;;;25.70;50.05;100048.15;108209;1280;21988;-59
2023/06/28 05:46:49;;;;;;;6.30;2.90;;;;;;;25.73;50.04;100052.73;108214;1277;21986;-59
2023/06/28 05:49:15;;;;;;;6.20;2.50;;;;;;;25.79;49.89;100051.55;108242;1274;21993;-69
2023/06/28 05:51:40;;;;;;;4.60;2.20;;;;;;;25.83;49.60;100046.84;108200;1284;21997;-70
2023/06/28 05:54:06;;;;;;;3.70;2.50;;;;;;;25.86;49.51;100039.47;108210;1284;21991;-70
2023/06/28 05:56:32;;;;;;;7.60;2.70;;;;;;;25.87;49.28;100030.92;108188;1284;21991;-59
2023/06/28 05:58:58;;;;;;;5.70;2.30;;;;;;;25.90;48.98;100029.98;108083;1274;22180;-71
2023/06/28 06:01:24;;;;;;;5.60;2.40;;;;;;;25.93;49.11;100026.70;108061;1280;21997;-59
2023/06/28 06:03:50;;;;;;;4.90;2.50;;;;;;;25.95;48.88;100021.98;108106;1283;21986;-70
2023/06/28 06:06:17;;;;;;;5.80;2.60;;;;;;;26.02;48.67;100019.13;108082;1277;22000;-59
2023/06/28 06:08:43;;;;;;;5.40;2.40;;;;;;;26.09;48.60;100014.89;108067;1283;21989;-60
2023/06/28 06:11:09;;;;;;;4.50;2.40;;;;;;;26.19;48.42;100018.58;108132;1285;21997;-60
2023/06/28 06:13:34;;;;;;;10.80;2.60;;;;;;;26.30;48.38;100021.81;108012;1282;21986;-58
2023/06/28 06:16:00;;;;;;;7.00;2.60;;;;;;;26.42;48.07;100026.38;108084;1280;21987;-67
2023/06/28 06:18:26;;;;;;;6.10;2.40;;;;;;;26.53;47.60;100025.83;108170;1274;21985;-67
2023/06/28 06:20:51;;;;;;;4.90;3.10;;;;;;;26.63;47.24;100026.81;108264;1283;21986;-69
2023/06/28 06:23:18;;;;;;;4.20;2.50;;;;;;;26.75;47.19;100029.77;108066;1280;22021;-59
2023/06/28 06:25:44;;;;;;;5.20;2.40;;;;;;;26.88;47.26;100038.77;108062;1285;21988;-67
2023/06/28 06:28:10;;;;;;;6.70;2.80;;;;;;;27.03;47.01;100045.18;108080;1280;22000;-60
2023/06/28 06:30:36;;;;;;;8.90;2.70;;;;;;;27.12;46.51;100043.13;108073;1283;22129;-67
2023/06/28 06:33:03;;;;;;;12.50;3.60;;;;;;;27.21;46.41;100041.08;108039;1285;21975;-64
2023/06/28 06:35:29;;;;;;;9.00;2.90;;;;;;;27.35;46.02;100046.55;108146;1285;21996;-69
2023/06/28 06:37:55;;;;;;;4.80;2.90;;;;;;;27.55;45.89;100042.49;108701;1284;21991;-69
2023/06/28 06:40:20;;;;;;;8.00;3.00;;;;;;;27.73;45.72;100042.88;108200;1274;21988;-59
2023/06/28 06:42:46;;;;;;;9.20;2.80;;;;;;;27.88;45.44;100047.27;108344;1274;21961;-69
2023/06/28 06:45:17;;;;;;;9.10;2.80;;;;;;;27.96;44.11;100053.92;108252;1280;22024;-69
2023/06/28 06:47:43;;;;;;;5.90;2.90;;;;;;;27.97;43.54;100056.97;108108;1283;21986;-71
2023/06/28 06:50:09;;;;;;;8.10;2.50;;;;;;;27.96;43.42;100061.69;108128;1280;21960;-70
2023/06/28 06:52:38;;;;;;;8.60;3.10;;;;;;;27.93;43.13;100061.99;108259;1282;24355;-70
2023/06/28 06:55:06;;;;;;;5.20;3.00;;;;;;;27.89;43.28;100061.76;108249;1280;21995;-72
2023/06/28 06:57:31;;;;;;;5.10;2.80;;;;;;;27.84;43.12;100068.70;108312;1277;22415;-71
2023/06/28 06:59:57;;;;;;;9.60;3.60;;;;;;;27.71;43.04;100079.76;108228;1280;21998;-61
2023/06/28 07:02:23;;;;;;;8.50;3.70;;;;;;;27.56;43.13;100089.22;108130;1274;21991;-61
2023/06/28 07:04:49;;;;;;;3.50;2.50;;;;;;;27.40;43.53;100089.73;108101;1274;21985;-70
2023/06/28 07:07:15;;;;;;;6.00;3.20;;;;;;;27.25;43.81;100085.77;108152;1274;22024;-62
2023/06/28 07:09:40;;;;;;;7.90;3.00;;;;;;;27.11;43.77;100089.88;108247;1283;21999;-70
2023/06/28 07:12:07;;;;;;;5.70;2.80;;;;;;;27.00;43.74;100101.10;108140;1284;21996;-59
2023/06/28 07:14:33;;;;;;;7.30;2.90;;;;;;;26.85;43.85;100106.33;108186;1285;21998;-71
2023/06/28 07:16:58;;;;;;;6.30;3.00;;;;;;;26.69;43.92;100111.39;108279;1281;21989;-60
2023/06/28 07:19:24;;;;;;;3.90;2.60;;;;;;;26.54;44.14;100104.39;108284;1274;21982;-71
2023/06/28 07:21:49;;;;;;;7.50;3.00;;;;;;;26.39;44.43;100104.02;108142;1284;21984;-60
2023/06/28 07:24:15;;;;;;;6.50;3.00;;;;;;;26.24;44.74;100099.86;108225;1274;21978;-69
2023/06/28 07:26:41;;;;;;;5.60;2.70;;;;;;;26.14;45.24;100103.13;108366;1280;23063;-59
2023/06/28 07:29:07;;;;;;;6.00;2.90;;;;;;;26.11;45.64;100109.30;108355;1285;21983;-69
2023/06/28 07:31:33;;;;;;;7.80;3.10;;;;;;;26.12;45.80;100104.91;108269;1279;21986;-69
2023/06/28 07:33:58;;;;;;;5.70;3.20;;;;;;;26.16;45.70;100103.91;108116;1280;22021;-68
2023/06/28 07:36:25;;;;;;;8.00;3.10;;;;;;;26.17;45.87;100103.65;107991;1285;177656;-61
2023/06/28 07:38:50;;;;;;;5.80;3.10;;;;;;;26.18;45.95;100101.05;108097;1285;21983;-60
2023/06/28 07:41:17;;;;;;;5.40;2.90;;;;;;;26.17;45.82;100097.05;108107;1274;21987;-61
2023/06/28 07:43:43;;;;;;;10.00;3.50;;;;;;;26.15;45.77;100094.10;108345;1277;22017;-61
2023/06/28 07:46:09;;;;;;;5.70;2.90;;;;;;;26.17;45.81;100095.21;108424;1283;22002;-60
2023/06/28 07:48:34;;;;;;;5.70;3.10;;;;;;;26.19;45.80;100095.77;108282;1284;21997;-60
2023/06/28 07:51:00;;;;;;;5.50;2.70;;;;;;;26.20;45.72;100086.33;108306;1284;21986;-60
2023/06/28 07:53:27;;;;;;;6.30;2.70;;;;;;;26.25;45.76;100082.88;108337;1274;21981;-61
2023/06/28 07:55:52;;;;;;;4.90;2.80;;;;;;;26.31;45.59;100087.73;108544;1285;22796;-71
2023/06/28 07:58:19;;;;;;;6.00;2.90;;;;;;;26.38;45.50;100086.63;108512;1285;21991;-71
2023/06/28 08:00:45;;;;;;;6.60;3.10;;;;;;;26.46;45.46;100091.75;108631;1284;22041;-61
2023/06/28 08:03:10;;;;;;;6.70;3.00;;;;;;;26.51;45.20;100097.95;108225;1280;21985;-61
2023/06/28 08:05:37;;;;;;;4.00;2.80;;;;;;;26.53;45.09;100094.36;107980;1285;21981;-60
2023/06/28 08:08:03;;;;;;;4.10;2.80;;;;;;;26.55;45.16;100095.64;107997;1277;22080;-71
2023/06/28 08:10:29;;;;;;;6.20;3.10;;;;;;;26.56;45.11;100093.20;110082;1285;21920;-58
2023/06/28 08:12:55;;;;;;;3.90;2.70;;;;;;;26.57;44.85;100095.54;108791;1279;21987;-68
2023/06/28 08:15:21;;;;;;;6.30;2.70;;;;;;;26.53;44.77;100096.52;108059;1285;21982;-69
2023/06/28 08:17:47;;;;;;;5.60;2.80;;;;;;;26.53;44.92;100093.52;108064;1277;21990;-58
2023/06/28 08:20:13;;;;;;;5.80;3.10;;;;;;;26.56;44.99;100098.80;108057;1280;21986;-59
2023/06/28 08:22:39;;;;;;;6.70;3.10;;;;;;;26.58;45.38;100103.64;108053;1285;21992;-60
2023/06/28 08:25:05;;;;;;;8.30;3.50;;;;;;;26.57;45.53;100107.49;108096;1285;21985;-68
2023/06/28 08:27:31;;;;;;;6.30;2.70;;;;;;;26.58;45.39;100100.80;108062;1285;21990;-61
2023/06/28 08:29:58;;;;;;;5.70;2.40;;;;;;;26.61;45.60;100093.91;108149;1278;22000;-69
2023/06/28 08:32:24;;;;;;;5.20;2.80;;;;;;;26.63;45.43;100096.27;108181;1280;21994;-59
2023/06/28 08:34:49;;;;;;;8.40;3.50;;;;;;;26.61;45.34;100097.50;108137;1283;21986;-60
2023/06/28 08:37:16;;;;;;;6.00;3.00;;;;;;;26.56;45.16;100097.77;108114;1280;21984;-60
2023/06/28 08:39:42;;;;;;;4.90;2.60;;;;;;;26.52;45.18;100098.45;108276;1280;21983;-59
2023/06/28 08:42:08;;;;;;;5.40;2.60;;;;;;;26.46;45.03;100098.55;108057;1285;21993;-60
2023/06/28 08:44:34;;;;;;;4.00;2.60;;;;;;;26.38;44.90;100099.35;108209;1285;21996;-69
2023/06/28 08:47:00;;;;;;;5.80;2.60;;;;;;;26.29;44.73;100105.70;108193;1277;21989;-69
2023/06/28 08:49:27;;;;;;;4.90;2.70;;;;;;;26.21;44.77;100105.30;108192;1285;21986;-59
2023/06/28 08:58:36;;;;;;;11.80;4.80;;;;;;;25.82;46.24;100112.92;107395;1288;543987;-68
2023/06/28 09:01:02;;;;;;;8.00;4.60;;;;;;;25.70;47.04;100114.45;107777;1293;21994;-59
2023/06/28 09:03:30;;;;;;;7.10;4.30;;;;;;;25.60;47.27;100116.88;107789;1294;21997;-60
2023/06/28 09:05:56;;;;;;;5.20;3.30;;;;;;;25.53;47.31;100127.09;107823;1290;21995;-60
2023/06/28 09:08:22;;;;;;;4.40;2.90;;;;;;;25.48;47.65;100128.19;107883;1294;21992;-67
2023/06/28 09:10:48;;;;;;;6.20;2.80;;;;;;;25.45;48.12;100130.41;107819;1294;22067;-66
2023/06/28 09:13:19;;;;;;;4.40;2.70;;;;;;;25.44;48.64;100133.73;107668;1286;197522;-60
2023/06/28 09:15:46;;;;;;;8.70;3.00;;;;;;;25.44;48.99;100132.85;107733;1291;21994;-67
2023/06/28 09:18:12;;;;;;;5.20;3.00;;;;;;;25.44;49.18;100138.19;107829;1290;22188;-60
2023/06/28 09:20:52;;;;;;;5.00;3.00;;;;;;;25.45;49.63;100142.07;108466;1284;21959;-68
2023/06/28 09:23:26;;;;;;;5.30;3.30;;;;;;;25.45;50.34;100145.88;108278;1287;22202;-60
2023/06/28 09:25:51;;;;;;;12.00;3.20;;;;;;;25.42;50.41;100149.09;108114;1280;21988;-68
2023/06/28 09:28:17;;;;;;;5.70;3.00;;;;;;;25.41;50.21;100154.55;107905;1290;22033;-67
2023/06/28 09:30:43;;;;;;;6.90;3.10;;;;;;;25.40;50.13;100156.98;107841;1290;22028;-67
2023/06/28 09:33:09;;;;;;;4.70;2.70;;;;;;;25.40;50.34;100164.00;107871;1286;21990;-66
2023/06/28 09:43:38;;;;;;;3.70;2.30;;;;;;;22.25;66.03;100185.04;107853;1283;548365;-59
2023/06/28 09:46:32;;;;;;;7.30;2.80;;;;;;;24.40;53.78;100176.52;108125;1283;23096;-59
2023/06/28 09:48:58;;;;;;;4.70;2.60;;;;;;;24.49;53.05;100179.95;108138;1286;21974;-63
2023/06/28 09:51:25;;;;;;;4.40;2.70;;;;;;;24.48;53.24;100183.77;108109;1286;21986;-62
2023/06/28 09:53:52;;;;;;;4.80;2.40;;;;;;;24.48;52.98;100186.45;108080;1284;22641;-63
2023/06/28 09:56:19;;;;;;;8.70;2.80;;;;;;;24.52;53.43;100190.88;108107;1280;201058;-60
2023/06/28 09:58:46;;;;;;;8.40;2.50;;;;;;;24.55;54.08;100187.96;108279;1277;22023;-62
2023/06/28 10:01:15;;;;;;;5.00;3.00;;;;;;;24.57;54.22;100182.62;108305;1283;21985;-60
2023/06/28 10:03:42;;;;;;;4.90;2.90;;;;;;;24.55;54.07;100174.66;108246;1277;21990;-60
2023/06/28 10:06:08;;;;;;;6.20;3.20;;;;;;;24.53;54.25;100167.98;108284;1283;22020;-62
2023/06/28 10:08:34;;;;;;;5.20;3.00;;;;;;;24.52;54.46;100167.17;108261;1283;22448;-60
2023/06/28 10:10:59;;;;;;;4.20;2.90;;;;;;;24.52;54.55;100168.95;108247;1283;22449;-61
2023/06/28 10:13:26;;;;;;;5.20;3.30;;;;;;;24.50;54.58;100169.08;108103;1283;22451;-61
2023/06/28 10:15:59;;;;;;;7.20;3.50;;;;;;;24.49;54.88;100171.19;108149;1283;21994;-62
2023/06/28 10:18:25;;;;;;;4.80;2.50;;;;;;;24.48;55.32;100169.80;108262;1283;21982;-61
2023/06/28 10:20:50;;;;;;;5.20;2.90;;;;;;;24.56;55.43;100162.24;108260;1280;21989;-63
2023/06/28 10:23:16;;;;;;;6.60;3.10;;;;;;;24.64;55.41;100159.30;108134;1279;22001;-62
2023/06/28 10:25:46;;;;;;;5.40;3.10;;;;;;;24.72;55.54;100157.64;108282;1280;21983;-61
2023/06/28 10:28:14;;;;;;;5.50;3.30;;;;;;;24.79;55.81;100150.29;108135;1277;23726;-62
2023/06/28 10:30:41;;;;;;;5.90;3.50;;;;;;;24.84;56.07;100138.83;108200;1283;22015;-61
2023/06/28 10:33:06;;;;;;;6.10;3.50;;;;;;;24.87;56.48;100134.81;108180;1283;21984;-65
2023/06/28 10:35:32;;;;;;;7.20;4.40;;;;;;;24.88;56.45;100129.75;108208;1280;22450;-61
2023/06/28 10:37:58;;;;;;;6.50;3.70;;;;;;;24.89;56.87;100123.52;108213;1273;21984;-65
2023/06/28 10:40:24;;;;;;;6.70;3.30;;;;;;;24.92;57.65;100122.98;108094;1283;21978;-62
2023/06/28 10:42:50;;;;;;;7.20;3.40;;;;;;;24.92;57.78;100116.84;108260;1280;22014;-65
2023/06/28 10:45:16;;;;;;;7.20;3.70;;;;;;;24.95;58.04;100110.50;108087;1280;22439;-62
2023/06/28 10:47:55;;;;;;;8.70;3.70;;;;;;;25.00;57.84;100106.59;108112;1283;21987;-62
2023/06/28 10:50:21;;;;;;;7.50;3.10;;;;;;;25.04;57.88;100099.23;108204;1283;21985;-62
2023/06/28 10:52:48;;;;;;;9.70;4.00;;;;;;;25.09;57.65;100098.47;108225;1283;21996;-63
2023/06/28 10:55:18;;;;;;;7.10;3.70;;;;;;;25.15;57.57;100098.75;108185;1284;21988;-64
2023/06/28 10:57:44;;;;;;;8.70;3.40;;;;;;;25.19;57.39;100100.80;108213;1283;21960;-63
2023/06/28 11:00:40;;;;;;;6.90;3.10;;;;;;;25.24;57.33;100102.17;108208;1283;22182;-63
2023/06/28 11:03:07;;;;;;;5.20;3.00;;;;;;;25.25;57.38;100107.48;108156;1280;21987;-63
2023/06/28 11:05:37;;;;;;;6.80;3.40;;;;;;;25.23;57.21;100110.87;108170;1277;22009;-63
2023/06/28 11:08:09;;;;;;;4.70;2.90;;;;;;;25.18;57.34;100113.23;108234;1277;21989;-63
2023/06/28 11:10:44;;;;;;;4.70;2.80;;;;;;;25.10;56.79;100108.99;108235;1277;21989;-62
2023/06/28 11:13:11;;;;;;;5.90;2.50;;;;;;;25.05;57.38;100107.10;108250;1284;23052;-63
2023/06/28 11:15:47;;;;;;;3.30;1.90;;;;;;;25.03;56.81;100109.23;108256;1284;21991;-64
2023/06/28 11:18:18;;;;;;;4.90;2.00;;;;;;;25.02;56.28;100108.91;108214;1283;21986;-64
2023/06/28 11:20:50;;;;;;;3.50;2.20;;;;;;;25.00;55.84;100109.05;108318;1283;21993;-61
2023/06/28 11:23:36;;;;;;;4.30;2.40;;;;;;;24.97;55.75;100104.30;108275;1274;23128;-62
2023/06/28 11:26:05;;;;;;;4.20;2.20;;;;;;;24.92;55.89;100105.73;108292;1283;23708;-62
2023/06/28 11:28:32;;;;;;;5.90;2.40;;;;;;;24.88;56.54;100111.80;108178;1283;21984;-61
2023/06/28 11:31:38;;;;;;;3.80;2.30;;;;;;;24.83;56.39;100114.48;108201;1282;21980;-62